sensor_id;sensor_type;location;lat;lon;timestamp;P1;durP1;ratioP1;P2;durP2;ratioP2
15297;SDS011;7750;48.796;9.026;2023-09-19T00:14:24;4.07;;;1.80;;
15297;SDS011;7750;48.796;9.026;2023-09-19T00:30:18;2.70;;;1.63;;
15297;SDS011;7750;48.796;9.026;2023-09-19T00:46:18;2.90;;;1.50;;
15297;SDS011;7750;48.796;9.026;2023-09-19T00:51:26;2.23;;;1.50;;
15297;SDS011;7750;48.796;9.026;2023-09-19T00:56:29;3.27;;;1.67;;
15297;SDS011;7750;48.796;9.026;2023-09-19T01:01:30;3.37;;;1.73;;
15297;SDS011;7750;48.796;9.026;2023-09-19T01:22:12;2.17;;;1.37;;
15297;SDS011;7750;48.796;9.026;2023-09-19T01:33:09;2.37;;;1.30;;
15297;SDS011;7750;48.796;9.026;2023-09-19T01:38:11;2.10;;;1.40;;
15297;SDS011;7750;48.796;9.026;2023-09-19T01:43:22;1.63;;;1.10;;
15297;SDS011;7750;48.796;9.026;2023-09-19T02:14:20;2.00;;;1.30;;
15297;SDS011;7750;48.796;9.026;2023-09-19T02:24:33;2.23;;;1.60;;
15297;SDS011;7750;48.796;9.026;2023-09-19T02:29:35;2.23;;;1.23;;
15297;SDS011;7750;48.796;9.026;2023-09-19T02:34:35;2.20;;;1.70;;
15297;SDS011;7750;48.796;9.026;2023-09-19T02:39:36;2.00;;;1.40;;
15297;SDS011;7750;48.796;9.026;2023-09-19T02:44:37;2.90;;;1.70;;
15297;SDS011;7750;48.796;9.026;2023-09-19T02:49:39;2.10;;;1.40;;
15297;SDS011;7750;48.796;9.026;2023-09-19T02:54:40;2.67;;;1.40;;
15297;SDS011;7750;48.796;9.026;2023-09-19T02:59:42;2.67;;;1.50;;
15297;SDS011;7750;48.796;9.026;2023-09-19T03:04:42;2.30;;;1.30;;
15297;SDS011;7750;48.796;9.026;2023-09-19T03:09:45;1.80;;;1.33;;
15297;SDS011;7750;48.796;9.026;2023-09-19T03:14:47;3.27;;;1.40;;
15297;SDS011;7750;48.796;9.026;2023-09-19T03:19:50;1.90;;;1.40;;
15297;SDS011;7750;48.796;9.026;2023-09-19T03:24:50;2.60;;;1.40;;
15297;SDS011;7750;48.796;9.026;2023-09-19T03:29:52;1.93;;;1.30;;
15297;SDS011;7750;48.796;9.026;2023-09-19T03:34:53;1.97;;;1.27;;
15297;SDS011;7750;48.796;9.026;2023-09-19T03:39:54;3.07;;;1.70;;
15297;SDS011;7750;48.796;9.026;2023-09-19T03:44:56;2.53;;;1.40;;
15297;SDS011;7750;48.796;9.026;2023-09-19T03:49:57;2.03;;;1.53;;
15297;SDS011;7750;48.796;9.026;2023-09-19T03:54:58;2.90;;;1.27;;
15297;SDS011;7750;48.796;9.026;2023-09-19T03:59:59;2.87;;;1.50;;
15297;SDS011;7750;48.796;9.026;2023-09-19T04:05:01;5.63;;;1.57;;
15297;SDS011;7750;48.796;9.026;2023-09-19T04:10:01;2.57;;;1.50;;
15297;SDS011;7750;48.796;9.026;2023-09-19T04:20:06;8.93;;;2.10;;
15297;SDS011;7750;48.796;9.026;2023-09-19T04:25:09;2.40;;;1.50;;
15297;SDS011;7750;48.796;9.026;2023-09-19T04:30:10;3.03;;;1.60;;
15297;SDS011;7750;48.796;9.026;2023-09-19T04:35:11;3.00;;;1.87;;
15297;SDS011;7750;48.796;9.026;2023-09-19T04:40:12;2.17;;;1.50;;
15297;SDS011;7750;48.796;9.026;2023-09-19T05:31:47;7.33;;;2.30;;
15297;SDS011;7750;48.796;9.026;2023-09-19T05:42:00;2.20;;;1.63;;
15297;SDS011;7750;48.796;9.026;2023-09-19T05:47:01;2.10;;;1.40;;
15297;SDS011;7750;48.796;9.026;2023-09-19T05:52:03;2.80;;;1.67;;
15297;SDS011;7750;48.796;9.026;2023-09-19T06:13:30;6.10;;;2.20;;
15297;SDS011;7750;48.796;9.026;2023-09-19T06:23:49;3.90;;;2.27;;
15297;SDS011;7750;48.796;9.026;2023-09-19T06:44:21;4.03;;;2.30;;
15297;SDS011;7750;48.796;9.026;2023-09-19T06:49:25;5.17;;;2.60;;
15297;SDS011;7750;48.796;9.026;2023-09-19T07:51:46;4.40;;;2.40;;
15297;SDS011;7750;48.796;9.026;2023-09-19T08:12:20;3.03;;;1.93;;
15297;SDS011;7750;48.796;9.026;2023-09-19T08:59:33;3.50;;;1.73;;
15297;SDS011;7750;48.796;9.026;2023-09-19T09:04:40;3.47;;;1.87;;
15297;SDS011;7750;48.796;9.026;2023-09-19T09:14:54;3.33;;;2.10;;
15297;SDS011;7750;48.796;9.026;2023-09-19T09:19:58;3.23;;;2.00;;
15297;SDS011;7750;48.796;9.026;2023-09-19T09:25:05;4.13;;;2.73;;
15297;SDS011;7750;48.796;9.026;2023-09-19T09:30:06;3.50;;;2.07;;
15297;SDS011;7750;48.796;9.026;2023-09-19T09:35:08;3.63;;;1.90;;
15297;SDS011;7750;48.796;9.026;2023-09-19T09:40:10;4.60;;;2.20;;
15297;SDS011;7750;48.796;9.026;2023-09-19T09:45:22;2.80;;;1.77;;
15297;SDS011;7750;48.796;9.026;2023-09-19T09:50:34;3.30;;;1.80;;
15297;SDS011;7750;48.796;9.026;2023-09-19T09:56:04;4.50;;;2.30;;
15297;SDS011;7750;48.796;9.026;2023-09-19T10:01:11;4.00;;;1.70;;
15297;SDS011;7750;48.796;9.026;2023-09-19T10:06:15;3.50;;;1.87;;
15297;SDS011;7750;48.796;9.026;2023-09-19T10:11:28;3.30;;;2.03;;
15297;SDS011;7750;48.796;9.026;2023-09-19T10:16:30;3.17;;;1.90;;
15297;SDS011;7750;48.796;9.026;2023-09-19T10:26:40;6.30;;;2.00;;
15297;SDS011;7750;48.796;9.026;2023-09-19T10:31:50;3.07;;;2.33;;
15297;SDS011;7750;48.796;9.026;2023-09-19T10:37:04;3.30;;;2.20;;
15297;SDS011;7750;48.796;9.026;2023-09-19T10:42:09;4.30;;;2.23;;
15297;SDS011;7750;48.796;9.026;2023-09-19T10:52:32;4.20;;;1.50;;
15297;SDS011;7750;48.796;9.026;2023-09-19T10:57:43;4.13;;;1.80;;
15297;SDS011;7750;48.796;9.026;2023-09-19T11:03:20;3.60;;;1.77;;
15297;SDS011;7750;48.796;9.026;2023-09-19T11:08:50;3.67;;;1.60;;
15297;SDS011;7750;48.796;9.026;2023-09-19T11:36:26;3.80;;;1.70;;
15297;SDS011;7750;48.796;9.026;2023-09-19T11:41:39;4.03;;;1.73;;
15297;SDS011;7750;48.796;9.026;2023-09-19T11:46:53;2.77;;;1.80;;
15297;SDS011;7750;48.796;9.026;2023-09-19T11:52:02;2.10;;;1.50;;
15297;SDS011;7750;48.796;9.026;2023-09-19T11:57:24;2.63;;;1.77;;
15297;SDS011;7750;48.796;9.026;2023-09-19T12:07:43;3.20;;;1.83;;
15297;SDS011;7750;48.796;9.026;2023-09-19T12:12:50;5.03;;;2.00;;
15297;SDS011;7750;48.796;9.026;2023-09-19T12:17:53;3.33;;;2.37;;
15297;SDS011;7750;48.796;9.026;2023-09-19T12:22:59;4.07;;;2.00;;
15297;SDS011;7750;48.796;9.026;2023-09-19T12:28:14;3.20;;;1.93;;
15297;SDS011;7750;48.796;9.026;2023-09-19T12:33:17;3.70;;;1.90;;
15297;SDS011;7750;48.796;9.026;2023-09-19T12:38:28;4.30;;;1.67;;
15297;SDS011;7750;48.796;9.026;2023-09-19T12:43:35;3.73;;;2.00;;
15297;SDS011;7750;48.796;9.026;2023-09-19T12:48:37;3.10;;;2.20;;
15297;SDS011;7750;48.796;9.026;2023-09-19T12:53:44;3.10;;;1.93;;
15297;SDS011;7750;48.796;9.026;2023-09-19T13:20:26;4.30;;;2.03;;
15297;SDS011;7750;48.796;9.026;2023-09-19T13:47:16;3.10;;;2.10;;
15297;SDS011;7750;48.796;9.026;2023-09-19T13:52:24;2.53;;;1.63;;
15297;SDS011;7750;48.796;9.026;2023-09-19T13:57:29;3.60;;;1.87;;
15297;SDS011;7750;48.796;9.026;2023-09-19T14:12:53;3.30;;;1.80;;
15297;SDS011;7750;48.796;9.026;2023-09-19T14:22:54;2.50;;;1.73;;
15297;SDS011;7750;48.796;9.026;2023-09-19T14:27:58;2.83;;;1.70;;
15297;SDS011;7750;48.796;9.026;2023-09-19T14:33:03;3.53;;;1.80;;
15297;SDS011;7750;48.796;9.026;2023-09-19T14:38:04;2.60;;;1.70;;
15297;SDS011;7750;48.796;9.026;2023-09-19T14:43:10;3.03;;;1.77;;
15297;SDS011;7750;48.796;9.026;2023-09-19T14:48:10;3.63;;;1.80;;
15297;SDS011;7750;48.796;9.026;2023-09-19T14:53:12;3.07;;;1.80;;
15297;SDS011;7750;48.796;9.026;2023-09-19T14:58:14;2.57;;;1.63;;
15297;SDS011;7750;48.796;9.026;2023-09-19T15:29:43;3.00;;;1.67;;
15297;SDS011;7750;48.796;9.026;2023-09-19T15:34:47;3.10;;;1.80;;
15297;SDS011;7750;48.796;9.026;2023-09-19T16:26:52;1.80;;;1.20;;
15297;SDS011;7750;48.796;9.026;2023-09-19T16:32:01;2.80;;;1.80;;
15297;SDS011;7750;48.796;9.026;2023-09-19T16:52:56;2.90;;;1.90;;
15297;SDS011;7750;48.796;9.026;2023-09-19T16:57:58;2.37;;;1.63;;
15297;SDS011;7750;48.796;9.026;2023-09-19T17:02:59;2.40;;;1.60;;
15297;SDS011;7750;48.796;9.026;2023-09-19T17:18:21;2.37;;;1.57;;
15297;SDS011;7750;48.796;9.026;2023-09-19T17:23:22;2.57;;;1.50;;
15297;SDS011;7750;48.796;9.026;2023-09-19T17:28:22;3.03;;;1.47;;
15297;SDS011;7750;48.796;9.026;2023-09-19T17:33:24;2.40;;;1.60;;
15297;SDS011;7750;48.796;9.026;2023-09-19T17:38:26;3.40;;;1.73;;
15297;SDS011;7750;48.796;9.026;2023-09-19T18:19:32;3.90;;;2.07;;
15297;SDS011;7750;48.796;9.026;2023-09-19T18:24:33;3.17;;;2.00;;
15297;SDS011;7750;48.796;9.026;2023-09-19T18:29:35;6.10;;;2.07;;
15297;SDS011;7750;48.796;9.026;2023-09-19T18:34:36;2.83;;;1.80;;
15297;SDS011;7750;48.796;9.026;2023-09-19T18:39:37;3.07;;;1.80;;
15297;SDS011;7750;48.796;9.026;2023-09-19T18:44:38;3.00;;;2.00;;
15297;SDS011;7750;48.796;9.026;2023-09-19T18:49:42;3.80;;;1.90;;
15297;SDS011;7750;48.796;9.026;2023-09-19T18:54:44;2.97;;;1.90;;
15297;SDS011;7750;48.796;9.026;2023-09-19T18:59:45;4.40;;;1.90;;
15297;SDS011;7750;48.796;9.026;2023-09-19T19:04:46;3.60;;;1.73;;
15297;SDS011;7750;48.796;9.026;2023-09-19T19:09:46;2.70;;;1.60;;
15297;SDS011;7750;48.796;9.026;2023-09-19T19:14:47;2.90;;;1.83;;
15297;SDS011;7750;48.796;9.026;2023-09-19T19:19:48;2.60;;;1.57;;
15297;SDS011;7750;48.796;9.026;2023-09-19T19:24:51;2.80;;;1.33;;
15297;SDS011;7750;48.796;9.026;2023-09-19T19:29:52;2.80;;;1.53;;
15297;SDS011;7750;48.796;9.026;2023-09-19T19:34:58;3.20;;;1.90;;
15297;SDS011;7750;48.796;9.026;2023-09-19T19:39:59;2.40;;;1.50;;
15297;SDS011;7750;48.796;9.026;2023-09-19T19:44:59;2.77;;;1.80;;
15297;SDS011;7750;48.796;9.026;2023-09-19T19:50:00;3.33;;;2.00;;
15297;SDS011;7750;48.796;9.026;2023-09-19T19:55:01;3.27;;;2.27;;
15297;SDS011;7750;48.796;9.026;2023-09-19T20:00:02;4.50;;;2.57;;
15297;SDS011;7750;48.796;9.026;2023-09-19T20:05:06;4.60;;;1.73;;
15297;SDS011;7750;48.796;9.026;2023-09-19T20:10:08;2.53;;;1.63;;
15297;SDS011;7750;48.796;9.026;2023-09-19T20:15:13;2.20;;;1.70;;
15297;SDS011;7750;48.796;9.026;2023-09-19T20:20:15;3.00;;;1.70;;
15297;SDS011;7750;48.796;9.026;2023-09-19T20:25:15;6.83;;;1.83;;
15297;SDS011;7750;48.796;9.026;2023-09-19T20:30:17;3.80;;;2.33;;
15297;SDS011;7750;48.796;9.026;2023-09-19T20:35:17;2.73;;;1.93;;
15297;SDS011;7750;48.796;9.026;2023-09-19T20:40:18;3.90;;;1.67;;
15297;SDS011;7750;48.796;9.026;2023-09-19T20:45:20;2.50;;;1.80;;
15297;SDS011;7750;48.796;9.026;2023-09-19T20:50:22;4.97;;;1.77;;
15297;SDS011;7750;48.796;9.026;2023-09-19T20:55:26;2.60;;;1.73;;
15297;SDS011;7750;48.796;9.026;2023-09-19T21:00:29;3.73;;;1.97;;
15297;SDS011;7750;48.796;9.026;2023-09-19T21:05:31;2.90;;;2.03;;
15297;SDS011;7750;48.796;9.026;2023-09-19T21:10:33;2.70;;;2.10;;
15297;SDS011;7750;48.796;9.026;2023-09-19T21:15:40;3.10;;;2.00;;
15297;SDS011;7750;48.796;9.026;2023-09-19T21:20:41;3.07;;;1.97;;
15297;SDS011;7750;48.796;9.026;2023-09-19T21:25:42;4.63;;;2.00;;
15297;SDS011;7750;48.796;9.026;2023-09-19T21:30:42;2.50;;;1.60;;
15297;SDS011;7750;48.796;9.026;2023-09-19T21:35:44;3.03;;;1.60;;
15297;SDS011;7750;48.796;9.026;2023-09-19T21:40:48;2.50;;;1.43;;
15297;SDS011;7750;48.796;9.026;2023-09-19T21:45:49;3.60;;;1.77;;
15297;SDS011;7750;48.796;9.026;2023-09-19T21:50:57;4.60;;;2.03;;
15297;SDS011;7750;48.796;9.026;2023-09-19T21:56:03;2.93;;;1.87;;
15297;SDS011;7750;48.796;9.026;2023-09-19T22:01:05;2.87;;;1.97;;
15297;SDS011;7750;48.796;9.026;2023-09-19T22:06:10;3.20;;;2.03;;
15297;SDS011;7750;48.796;9.026;2023-09-19T22:11:16;3.33;;;2.00;;
15297;SDS011;7750;48.796;9.026;2023-09-19T22:16:20;3.20;;;1.90;;
15297;SDS011;7750;48.796;9.026;2023-09-19T22:21:21;3.50;;;2.10;;
15297;SDS011;7750;48.796;9.026;2023-09-19T22:26:22;2.50;;;1.70;;
15297;SDS011;7750;48.796;9.026;2023-09-19T22:31:25;2.50;;;1.73;;
15297;SDS011;7750;48.796;9.026;2023-09-19T22:36:28;2.33;;;1.77;;
15297;SDS011;7750;48.796;9.026;2023-09-19T22:41:32;3.07;;;1.80;;
15297;SDS011;7750;48.796;9.026;2023-09-19T22:46:33;3.93;;;2.17;;
15297;SDS011;7750;48.796;9.026;2023-09-19T22:51:34;3.77;;;2.17;;
15297;SDS011;7750;48.796;9.026;2023-09-19T22:56:41;4.37;;;2.07;;
15297;SDS011;7750;48.796;9.026;2023-09-19T23:01:44;3.10;;;2.10;;
15297;SDS011;7750;48.796;9.026;2023-09-19T23:06:49;2.93;;;1.87;;
15297;SDS011;7750;48.796;9.026;2023-09-19T23:11:55;5.63;;;2.07;;
15297;SDS011;7750;48.796;9.026;2023-09-19T23:17:06;3.33;;;2.20;;
15297;SDS011;7750;48.796;9.026;2023-09-19T23:22:12;3.67;;;2.07;;
15297;SDS011;7750;48.796;9.026;2023-09-19T23:27:22;3.10;;;2.07;;
15297;SDS011;7750;48.796;9.026;2023-09-19T23:32:27;5.17;;;2.47;;
15297;SDS011;7750;48.796;9.026;2023-09-19T23:37:27;3.50;;;2.70;;
15297;SDS011;7750;48.796;9.026;2023-09-19T23:42:28;4.60;;;2.60;;
15297;SDS011;7750;48.796;9.026;2023-09-19T23:47:30;3.97;;;2.40;;
15297;SDS011;7750;48.796;9.026;2023-09-19T23:52:31;2.77;;;2.03;;
15297;SDS011;7750;48.796;9.026;2023-09-19T23:57:32;3.20;;;2.40;;
